Time;durP1;ratioP1;P1;durP2;ratioP2;P2;SDS_P1;SDS_P2;PMS_P1;PMS_P2;Temp;Humidity;BMP_temperature;BMP_pressure;BME280_temperature;BME280_humidity;BME280_pressure;Samples;Min_cycle;Max_cycle;Signal;HPM_P1;HPM_P2
2023/01/27 00:00:47;;;;;;;7.25;1.83;;;;;;;5.83;75.22;102360.69;5028599;28;20599;-88
2023/01/27 00:03:13;;;;;;;10.85;2.15;;;;;;;5.68;75.38;102355.34;5030286;28;20036;-88
2023/01/27 00:05:38;;;;;;;8.80;2.55;;;;;;;5.68;75.51;102351.84;5029490;28;20029;-88
2023/01/27 00:08:04;;;;;;;8.93;2.00;;;;;;;5.51;75.80;102344.81;5026880;28;20029;-89
2023/01/27 00:10:29;;;;;;;14.52;2.67;;;;;;;5.60;75.73;102355.34;5026624;28;20025;-88
2023/01/27 00:15:39;;;;;;;12.45;2.80;;;;;;;5.57;76.09;102365.81;5017931;28;20036;-88
2023/01/27 00:18:04;;;;;;;12.63;2.72;;;;;;;5.57;75.64;102354.44;5015997;28;20029;-88
2023/01/27 00:26:05;;;;;;;6.80;2.10;;;;;;;5.54;76.50;102360.53;5027645;28;20039;-88
2023/01/27 00:28:30;;;;;;;13.40;3.28;;;;;;;5.65;76.45;102357.13;5009762;28;20065;-88
2023/01/27 00:30:57;;;;;;;13.80;2.55;;;;;;;5.78;76.04;102365.06;5028946;28;20107;-89
2023/01/27 00:33:25;;;;;;;10.35;2.50;;;;;;;5.78;75.93;102357.19;5008466;28;20036;-89
2023/01/27 00:36:07;;;;;;;8.73;2.30;;;;;;;5.73;76.10;102355.38;5012272;28;20033;-88
2023/01/27 00:38:39;;;;;;;15.80;2.63;;;;;;;5.61;76.76;102364.09;5008340;28;20032;-88
2023/01/27 00:41:14;;;;;;;7.18;2.33;;;;;;;5.59;76.59;102365.81;5003647;28;20497;-88
2023/01/27 00:43:40;;;;;;;12.27;2.17;;;;;;;5.51;77.23;102360.53;5005598;28;20102;-88
2023/01/27 00:46:06;;;;;;;13.10;2.80;;;;;;;5.60;76.51;102362.34;5029629;28;20500;-89
2023/01/27 00:48:32;;;;;;;10.77;2.67;;;;;;;5.57;76.52;102357.94;5010367;28;20034;-88
2023/01/27 00:50:57;;;;;;;10.13;2.15;;;;;;;5.59;76.57;102356.19;5029541;28;20546;-88
2023/01/27 00:53:23;;;;;;;13.20;3.28;;;;;;;5.68;76.36;102362.34;5028045;28;20519;-88
2023/01/27 00:55:48;;;;;;;5.40;2.40;;;;;;;5.75;76.08;102356.28;5028301;28;20029;-88
2023/01/27 00:58:14;;;;;;;5.60;2.63;;;;;;;5.48;76.50;102360.53;5029350;28;20078;-88
2023/01/27 01:00:39;;;;;;;11.75;2.38;;;;;;;5.51;76.21;102360.53;5028109;28;20104;-88
2023/01/27 01:03:04;;;;;;;13.18;2.33;;;;;;;5.61;76.46;102374.59;5029385;28;20540;-89
2023/01/27 01:05:30;;;;;;;10.32;2.40;;;;;;;5.65;76.33;102383.34;5026228;28;20041;-88
2023/01/27 01:07:55;;;;;;;9.30;2.33;;;;;;;5.65;76.53;102381.59;5005848;28;20040;-89
2023/01/27 01:10:20;;;;;;;13.32;2.53;;;;;;;5.61;76.53;102388.56;5027295;28;20493;-88
2023/01/27 01:12:46;;;;;;;11.55;2.58;;;;;;;5.51;76.25;102367.53;5007867;28;20033;-88
2023/01/27 01:15:11;;;;;;;12.02;2.97;;;;;;;5.56;75.96;102377.19;5023041;28;20065;-88
2023/01/27 01:17:36;;;;;;;8.93;2.63;;;;;;;5.49;76.58;102378.00;5024845;28;20037;-88
2023/01/27 01:20:02;;;;;;;8.35;3.05;;;;;;;5.54;76.79;102384.16;5029415;28;20389;-88
2023/01/27 01:22:27;;;;;;;15.00;3.20;;;;;;;5.49;76.45;102396.38;5027759;28;20112;-88
2023/01/27 01:24:52;;;;;;;13.88;3.13;;;;;;;5.42;76.72;102378.84;5025955;28;20029;-88
2023/01/27 01:27:18;;;;;;;7.78;3.20;;;;;;;5.46;76.71;102396.38;5003696;28;20034;-88
2023/01/27 01:29:43;;;;;;;9.82;2.88;;;;;;;5.43;76.36;102388.47;5025861;28;20032;-88
2023/01/27 01:32:11;;;;;;;9.93;2.83;;;;;;;5.43;76.57;102392.84;5027504;28;20182;-88
2023/01/27 01:34:36;;;;;;;8.50;3.53;;;;;;;5.45;76.57;102405.09;5006960;28;20025;-88
2023/01/27 01:37:02;;;;;;;12.20;3.10;;;;;;;5.38;76.41;102388.44;5030429;28;20048;-89
2023/01/27 01:39:28;;;;;;;12.50;3.50;;;;;;;5.36;75.71;102394.53;5011948;28;20104;-88
2023/01/27 01:41:53;;;;;;;10.23;3.50;;;;;;;5.42;75.55;102410.31;5005055;28;20040;-88
2023/01/27 01:44:29;;;;;;;4.57;3.03;;;;;;;5.41;75.76;102405.06;5004573;28;20072;-88
2023/01/27 01:46:55;;;;;;;11.23;3.58;;;;;;;5.45;75.69;102422.56;5028600;28;20036;-88
2023/01/27 01:49:31;;;;;;;10.75;3.47;;;;;;;5.31;75.51;102391.00;5030096;28;20416;-89
2023/01/27 01:52:06;;;;;;;7.53;2.80;;;;;;;5.29;75.36;102395.38;5026198;28;20072;-88
2023/01/27 01:54:37;;;;;;;8.93;3.28;;;;;;;5.37;74.96;102401.56;5010653;28;20048;-88
2023/01/27 01:57:06;;;;;;;8.25;3.00;;;;;;;5.36;74.46;102405.94;5030838;28;20037;-88
2023/01/27 01:59:54;;;;;;;9.30;3.80;;;;;;;5.33;75.42;102397.16;5028896;28;20033;-88
2023/01/27 02:02:22;;;;;;;10.15;3.22;;;;;;;5.28;75.10;102397.13;5030162;28;20030;-89
2023/01/27 02:05:03;;;;;;;8.23;3.38;;;;;;;5.31;75.52;102410.22;5029291;28;20067;-88
2023/01/27 02:07:50;;;;;;;8.50;3.65;;;;;;;5.36;75.03;102412.88;5030361;28;20083;-88
2023/01/27 02:10:16;;;;;;;8.77;3.42;;;;;;;5.25;74.47;102391.84;5026065;28;20034;-88
2023/01/27 02:12:41;;;;;;;6.32;3.78;;;;;;;5.27;74.95;102399.72;5013677;28;20086;-88
2023/01/27 02:15:08;;;;;;;7.80;3.47;;;;;;;5.34;75.08;102406.78;5028045;28;20029;-89
2023/01/27 02:17:34;;;;;;;9.20;3.55;;;;;;;5.26;74.65;102390.97;5022557;28;20556;-88
2023/01/27 02:20:39;;;;;;;7.65;3.38;;;;;;;5.35;75.37;102408.53;5013076;28;20108;-88
2023/01/27 02:23:23;;;;;;;7.47;3.88;;;;;;;5.39;75.48;102412.91;5028980;28;20033;-88
2023/01/27 02:26:17;;;;;;;7.45;3.95;;;;;;;5.41;75.08;102416.44;5030131;28;20032;-88
2023/01/27 02:28:42;;;;;;;13.70;4.13;;;;;;;5.30;75.31;102408.50;5030184;28;20045;-88
2023/01/27 02:31:07;;;;;;;10.15;3.88;;;;;;;5.25;75.48;102404.97;5030270;28;20025;-89
2023/01/27 02:33:33;;;;;;;8.02;3.72;;;;;;;5.24;75.77;102412.81;5030298;28;20534;-88
2023/01/27 02:36:14;;;;;;;5.65;3.15;;;;;;;5.26;75.76;102427.69;5032376;28;20025;-88
2023/01/27 02:38:50;;;;;;;9.13;4.35;;;;;;;5.09;76.15;102411.84;5016922;28;20119;-88
2023/01/27 02:41:18;;;;;;;6.38;3.97;;;;;;;5.21;76.41;102425.91;5030658;28;20479;-89
2023/01/27 02:43:44;;;;;;;8.48;3.53;;;;;;;5.10;76.08;102410.97;5030000;28;20749;-88
2023/01/27 02:46:09;;;;;;;8.35;4.03;;;;;;;5.15;75.95;102418.00;5031489;28;20051;-89
2023/01/27 02:48:34;;;;;;;8.05;3.65;;;;;;;5.32;75.65;102437.38;5031122;28;20022;-88
2023/01/27 02:51:00;;;;;;;9.55;4.15;;;;;;;5.34;75.88;102427.75;5030310;28;20204;-88
2023/01/27 02:53:25;;;;;;;10.95;5.03;;;;;;;5.28;75.84;102414.59;5026166;28;20116;-88
2023/01/27 02:55:50;;;;;;;10.23;4.78;;;;;;;5.28;74.55;102409.38;5007810;28;20507;-89
2023/01/27 02:58:16;;;;;;;13.35;4.40;;;;;;;5.27;74.44;102412.81;5030995;28;20054;-89
2023/01/27 03:00:42;;;;;;;12.68;4.28;;;;;;;5.31;75.02;102423.34;5026300;28;20021;-89
2023/01/27 03:03:08;;;;;;;10.80;5.20;;;;;;;5.34;75.41;102425.13;5031504;28;20433;-89
2023/01/27 03:05:34;;;;;;;10.10;4.90;;;;;;;5.30;75.42;102426.84;5010313;28;20128;-90
2023/01/27 03:07:59;;;;;;;11.50;5.72;;;;;;;5.12;75.39;102410.97;5009261;28;20026;-89
2023/01/27 03:10:24;;;;;;;12.85;5.05;;;;;;;5.08;75.42;102406.56;5010837;28;20108;-89
2023/01/27 03:12:50;;;;;;;12.32;5.18;;;;;;;5.13;75.64;102404.88;5006031;28;20026;-88
2023/01/27 03:18:12;;;;;;;12.00;5.00;;;;;;;5.24;75.67;102436.41;5028148;28;20389;-89
2023/01/27 03:20:48;;;;;;;11.23;5.13;;;;;;;5.27;75.53;102431.19;5011626;28;20481;-89
2023/01/27 03:23:15;;;;;;;11.30;5.40;;;;;;;5.19;75.68;102431.16;5026500;28;20025;-89
2023/01/27 03:25:46;;;;;;;9.45;5.28;;;;;;;5.20;75.88;102434.63;5028076;28;20028;-89
2023/01/27 03:28:12;;;;;;;13.48;5.28;;;;;;;5.11;76.44;102433.69;5026777;28;20060;-89
2023/01/27 03:30:38;;;;;;;13.38;6.05;;;;;;;5.08;75.79;102428.44;5003665;28;20033;-89
2023/01/27 03:33:06;;;;;;;13.70;5.97;;;;;;;5.09;75.93;102429.31;5009930;28;20025;-89
2023/01/27 03:35:37;;;;;;;11.77;5.65;;;;;;;5.11;76.46;102441.56;5011748;28;20448;-89
2023/01/27 03:46:18;;;;;;;13.93;5.88;;;;;;;5.17;76.59;102445.97;5030583;28;20044;-89
2023/01/27 03:48:49;;;;;;;11.30;5.15;;;;;;;5.08;76.80;102435.41;5029394;28;20515;-89
2023/01/27 03:51:14;;;;;;;11.20;6.10;;;;;;;5.10;76.80;102445.06;5029056;28;20512;-89
2023/01/27 03:53:40;;;;;;;13.10;6.45;;;;;;;5.12;77.39;102455.53;5024946;28;20088;-88
2023/01/27 03:56:06;;;;;;;16.65;5.93;;;;;;;5.06;77.46;102447.63;5012632;28;20026;-89
2023/01/27 03:58:33;;;;;;;15.25;6.78;;;;;;;5.09;77.43;102460.78;5022469;28;20018;-89
2023/01/27 04:01:02;;;;;;;15.13;6.70;;;;;;;5.06;77.80;102460.75;5008735;28;20029;-89
2023/01/27 04:09:06;;;;;;;17.13;7.45;;;;;;;5.10;77.57;102467.78;5029627;28;20044;-89
2023/01/27 04:14:15;;;;;;;18.80;6.85;;;;;;;5.04;77.89;102455.50;5028386;28;20052;-89
2023/01/27 04:16:41;;;;;;;16.25;7.45;;;;;;;5.00;77.48;102455.47;5009531;28;20113;-89
2023/01/27 04:19:08;;;;;;;17.40;7.43;;;;;;;5.08;77.72;102470.38;5004955;28;20429;-89
2023/01/27 04:21:34;;;;;;;17.05;8.10;;;;;;;5.02;77.28;102457.22;5026346;28;20392;-89
2023/01/27 04:24:00;;;;;;;15.25;7.65;;;;;;;5.04;77.17;102460.75;5010133;28;20030;-90
2023/01/27 04:26:32;;;;;;;20.67;6.93;;;;;;;5.12;77.11;102463.41;5028170;28;20025;-89
2023/01/27 04:29:01;;;;;;;19.50;7.85;;;;;;;5.08;77.03;102456.38;5010755;28;20076;-89
2023/01/27 04:31:26;;;;;;;26.45;9.68;;;;;;;4.97;76.54;102448.44;5008933;28;20041;-89
2023/01/27 04:33:52;;;;;;;16.33;7.53;;;;;;;5.10;76.69;102471.25;5012344;28;20408;-88
2023/01/27 04:36:17;;;;;;;19.42;8.77;;;;;;;5.11;76.68;102470.41;5029201;28;20053;-89
2023/01/27 04:38:42;;;;;;;16.55;7.85;;;;;;;5.08;76.40;102467.78;5011409;28;20044;-89
2023/01/27 04:41:08;;;;;;;17.27;7.60;;;;;;;4.99;76.07;102458.91;5013040;28;20037;-89
2023/01/27 04:43:34;;;;;;;16.58;7.65;;;;;;;5.12;76.02;102480.00;5025338;28;20040;-88
2023/01/27 04:45:59;;;;;;;19.85;7.85;;;;;;;4.92;76.27;102463.25;5027980;28;20103;-89
2023/01/27 04:48:24;;;;;;;15.95;7.47;;;;;;;4.93;76.43;102458.88;5029151;28;20128;-88
2023/01/27 04:50:50;;;;;;;23.88;8.75;;;;;;;4.93;76.81;102475.47;5028600;28;20666;-89
2023/01/27 04:53:15;;;;;;;18.65;8.32;;;;;;;4.98;77.20;102478.13;5029501;28;20103;-89
2023/01/27 04:55:44;;;;;;;26.02;7.93;;;;;;;4.78;77.14;102451.75;5011464;28;20097;-88
2023/01/27 04:58:12;;;;;;;21.13;8.00;;;;;;;4.96;76.63;102482.50;5026658;28;20025;-89
2023/01/27 05:00:37;;;;;;;14.77;7.07;;;;;;;4.90;75.98;102475.47;5023254;28;20029;-88
2023/01/27 05:03:04;;;;;;;17.33;7.95;;;;;;;4.83;75.84;102456.16;5028909;28;20032;-88
2023/01/27 05:05:30;;;;;;;11.80;6.35;;;;;;;5.06;75.10;102484.34;5008052;28;20388;-89
2023/01/27 05:07:56;;;;;;;15.07;7.38;;;;;;;5.07;75.04;102483.47;5012274;28;20029;-88
2023/01/27 05:10:21;;;;;;;16.70;7.57;;;;;;;4.89;75.59;102478.91;5028700;28;20120;-89
2023/01/27 05:12:46;;;;;;;14.13;7.47;;;;;;;4.88;75.85;102481.53;5006221;28;20488;-89
2023/01/27 05:15:11;;;;;;;18.08;7.82;;;;;;;4.76;75.73;102469.22;5002644;28;20060;-88
2023/01/27 05:17:37;;;;;;;11.68;6.43;;;;;;;4.89;75.43;102484.16;5005226;28;20525;-88
2023/01/27 05:20:03;;;;;;;13.98;7.47;;;;;;;4.78;75.37;102470.97;5027980;28;20025;-89
2023/01/27 05:22:28;;;;;;;13.82;7.20;;;;;;;4.86;75.32;102481.53;5027004;28;20037;-88
2023/01/27 05:24:53;;;;;;;15.05;7.15;;;;;;;4.85;75.44;102485.03;5022546;28;20041;-89
2023/01/27 05:27:19;;;;;;;13.55;8.10;;;;;;;4.90;75.58;102493.81;5025228;28;20037;-89
2023/01/27 05:29:44;;;;;;;15.27;7.50;;;;;;;4.87;75.49;102483.28;5025233;28;20018;-88
2023/01/27 05:32:09;;;;;;;14.73;8.02;;;;;;;4.84;76.02;102484.13;5023469;28;20123;-88
2023/01/27 05:34:35;;;;;;;12.68;7.15;;;;;;;4.95;75.75;102497.34;5027743;28;20378;-88
2023/01/27 05:37:00;;;;;;;16.98;8.50;;;;;;;4.95;76.01;102493.84;5029097;28;20029;-90
2023/01/27 05:39:25;;;;;;;15.45;7.68;;;;;;;4.89;75.79;102489.41;4997950;28;20472;-88
2023/01/27 05:41:50;;;;;;;14.70;7.47;;;;;;;4.89;75.63;102504.25;5003593;28;20481;-89
2023/01/27 05:44:16;;;;;;;14.10;7.30;;;;;;;4.97;75.97;102520.94;5004792;28;20049;-88
2023/01/27 05:46:41;;;;;;;17.15;8.90;;;;;;;4.87;76.13;102506.88;5011562;28;20048;-89
2023/01/27 05:49:07;;;;;;;17.40;8.00;;;;;;;5.05;75.72;102519.28;5017460;28;20401;-88
2023/01/27 05:51:40;;;;;;;14.63;7.68;;;;;;;5.09;75.86;102524.56;5006486;28;20124;-89
2023/01/27 05:54:06;;;;;;;16.13;8.27;;;;;;;5.12;75.81;102527.19;5009640;28;20021;-88
2023/01/27 05:56:32;;;;;;;14.98;7.43;;;;;;;4.94;75.73;102494.69;5026249;28;20037;-89
2023/01/27 05:58:58;;;;;;;15.23;8.05;;;;;;;5.03;75.96;102519.25;5006510;28;20113;-88
2023/01/27 06:01:27;;;;;;;15.82;7.90;;;;;;;4.95;76.12;102505.22;5006075;28;20116;-88
2023/01/27 06:03:52;;;;;;;14.57;7.60;;;;;;;4.89;76.07;102505.13;5017378;28;20389;-89
2023/01/27 06:06:20;;;;;;;15.75;7.72;;;;;;;4.96;76.02;102516.56;5026830;28;20033;-89
2023/01/27 06:08:46;;;;;;;16.60;8.15;;;;;;;4.90;76.05;102514.78;5009108;28;20033;-88
2023/01/27 06:11:12;;;;;;;14.60;7.68;;;;;;;4.95;76.19;102518.31;5006046;28;20116;-89
2023/01/27 06:13:38;;;;;;;15.70;8.20;;;;;;;5.05;76.13;102542.88;5009587;28;20035;-88
2023/01/27 06:16:07;;;;;;;14.82;7.40;;;;;;;5.08;76.11;102538.53;5006848;28;20033;-88
2023/01/27 06:18:32;;;;;;;15.07;7.15;;;;;;;5.07;75.88;102521.03;5027705;28;20025;-88
2023/01/27 06:20:59;;;;;;;12.05;7.20;;;;;;;5.02;76.02;102519.25;5027093;28;20503;-88
2023/01/27 06:23:26;;;;;;;14.77;7.78;;;;;;;4.99;75.88;102516.56;5024232;28;20040;-89
2023/01/27 06:25:52;;;;;;;17.70;8.95;;;;;;;5.02;76.02;102527.09;5024024;28;20092;-89
2023/01/27 06:28:17;;;;;;;21.02;8.40;;;;;;;5.01;75.68;102527.97;5008753;28;20448;-88
2023/01/27 06:30:43;;;;;;;13.73;7.40;;;;;;;5.08;76.03;102538.53;5024474;28;20100;-89
2023/01/27 06:33:09;;;;;;;13.27;8.30;;;;;;;4.98;75.98;102526.19;5026348;28;20104;-88
2023/01/27 06:35:35;;;;;;;15.27;7.32;;;;;;;5.00;75.80;102528.84;5010904;28;20029;-89
2023/01/27 06:38:02;;;;;;;11.85;6.95;;;;;;;5.09;75.72;102534.19;5029581;28;20036;-89
2023/01/27 06:40:30;;;;;;;10.10;6.43;;;;;;;5.05;75.08;102538.50;5009968;28;20026;-89
2023/01/27 06:42:55;;;;;;;13.85;8.00;;;;;;;5.08;74.99;102533.31;5012037;28;20084;-88
2023/01/27 06:45:21;;;;;;;14.63;7.70;;;;;;;5.11;75.66;102541.19;5029337;28;20497;-89
2023/01/27 06:47:57;;;;;;;10.23;6.22;;;;;;;5.15;74.98;102546.47;5030838;28;20120;-88
2023/01/27 06:50:24;;;;;;;13.23;6.95;;;;;;;5.16;75.17;102545.59;5028912;28;20033;-88
2023/01/27 06:52:50;;;;;;;12.70;7.15;;;;;;;5.09;75.56;102535.06;5011139;28;20033;-89
2023/01/27 06:55:15;;;;;;;12.50;7.07;;;;;;;5.12;74.94;102529.81;5007222;28;20058;-89
2023/01/27 06:57:41;;;;;;;13.05;6.55;;;;;;;5.18;74.93;102538.63;5029014;28;20120;-88
2023/01/27 07:00:07;;;;;;;17.13;7.75;;;;;;;5.18;74.96;102538.63;5029175;28;20024;-88
2023/01/27 07:02:32;;;;;;;11.02;6.53;;;;;;;5.07;74.46;102521.03;5024541;28;20037;-88
2023/01/27 07:04:58;;;;;;;11.30;6.55;;;;;;;5.17;74.25;102540.34;5024846;28;20029;-89
2023/01/27 07:07:23;;;;;;;12.25;5.82;;;;;;;5.21;74.20;102539.53;5001162;28;20362;-88
2023/01/27 07:09:48;;;;;;;9.35;5.32;;;;;;;5.26;74.42;102552.66;5024974;28;20124;-88
2023/01/27 07:12:14;;;;;;;9.55;5.47;;;;;;;5.18;73.76;102544.75;5028544;28;20416;-88
2023/01/27 07:14:39;;;;;;;8.45;4.68;;;;;;;5.24;73.72;102543.94;5029880;28;20029;-88
2023/01/27 07:17:04;;;;;;;8.57;5.35;;;;;;;5.28;74.24;102554.47;5027360;28;20384;-88
2023/01/27 07:19:29;;;;;;;9.48;5.45;;;;;;;5.26;73.82;102545.69;5024506;28;20098;-88
2023/01/27 07:21:55;;;;;;;8.45;4.68;;;;;;;5.36;73.99;102565.00;5007732;28;20456;-88
2023/01/27 07:24:20;;;;;;;10.02;5.68;;;;;;;5.25;74.18;102554.41;5011369;28;20037;-88
2023/01/27 07:26:46;;;;;;;10.50;5.30;;;;;;;5.30;73.74;102557.09;5029886;28;20033;-88
2023/01/27 07:29:12;;;;;;;9.60;4.97;;;;;;;5.30;73.97;102549.22;5031328;28;20068;-88
2023/01/27 07:31:37;;;;;;;7.82;4.70;;;;;;;5.28;73.78;102545.72;5005844;28;20025;-89
2023/01/27 07:34:03;;;;;;;10.77;5.10;;;;;;;5.17;74.20;102553.47;5029668;28;20536;-88
2023/01/27 07:36:28;;;;;;;8.18;4.85;;;;;;;5.07;74.30;102546.38;5026096;28;20025;-88
2023/01/27 07:38:53;;;;;;;6.50;4.00;;;;;;;5.08;74.37;102562.13;5032452;28;20547;-89
2023/01/27 07:41:21;;;;;;;7.63;4.60;;;;;;;5.31;73.93;102566.69;5006798;28;20025;-88
2023/01/27 07:43:47;;;;;;;7.95;5.07;;;;;;;5.24;73.51;102551.78;5024002;28;20077;-89
2023/01/27 07:46:13;;;;;;;8.60;5.55;;;;;;;5.38;73.47;102579.03;5028663;28;20064;-89
2023/01/27 07:48:38;;;;;;;10.00;4.78;;;;;;;5.27;73.35;102555.31;5008941;28;20060;-88
2023/01/27 07:51:03;;;;;;;8.00;5.13;;;;;;;5.23;73.82;102569.28;5028994;28;20029;-89
2023/01/27 07:53:28;;;;;;;7.43;4.30;;;;;;;5.35;73.45;102573.75;5030635;28;20028;-89
2023/01/27 07:55:54;;;;;;;9.35;5.43;;;;;;;5.41;73.32;102586.94;5029086;28;20025;-88
2023/01/27 07:58:19;;;;;;;9.70;5.07;;;;;;;5.36;73.92;102575.50;5029485;28;20352;-88
2023/01/27 08:00:44;;;;;;;7.18;4.72;;;;;;;5.41;73.47;102588.66;5026828;28;20485;-88
2023/01/27 08:03:21;;;;;;;10.40;5.13;;;;;;;5.46;73.84;102597.47;5008783;28;20496;-89
2023/01/27 08:05:46;;;;;;;9.52;4.82;;;;;;;5.27;73.72;102564.91;5007998;28;20034;-88
2023/01/27 08:08:11;;;;;;;7.05;4.43;;;;;;;5.24;73.73;102559.66;5010187;28;20108;-88
2023/01/27 08:10:37;;;;;;;7.53;4.57;;;;;;;5.36;73.97;102570.25;5012300;28;20022;-89
2023/01/27 08:13:04;;;;;;;8.05;4.70;;;;;;;5.44;73.74;102586.94;5024560;28;20036;-89
2023/01/27 08:15:29;;;;;;;7.05;4.57;;;;;;;5.44;73.58;102581.69;5010622;28;20029;-88
2023/01/27 08:17:55;;;;;;;8.18;4.78;;;;;;;5.33;74.13;102586.84;5027763;28;20099;-89
2023/01/27 08:20:22;;;;;;;6.63;4.00;;;;;;;5.37;73.77;102588.63;5006860;28;20086;-89
2023/01/27 08:22:47;;;;;;;11.18;5.13;;;;;;;5.34;74.10;102587.72;5021485;28;20115;-89
2023/01/27 08:25:12;;;;;;;8.60;5.18;;;;;;;5.37;74.26;102588.63;5011434;28;20033;-89
2023/01/27 08:27:38;;;;;;;5.75;3.97;;;;;;;5.41;74.22;102599.13;5026256;28;20025;-89
2023/01/27 08:30:04;;;;;;;7.68;4.50;;;;;;;5.27;74.23;102570.16;5021109;28;20041;-90
2023/01/27 08:32:29;;;;;;;7.35;5.00;;;;;;;5.24;74.43;102570.16;5021515;28;20025;-89
2023/01/27 08:34:54;;;;;;;7.07;4.25;;;;;;;5.31;74.70;102585.94;5010380;28;20021;-89
2023/01/27 08:37:20;;;;;;;7.20;4.68;;;;;;;5.28;74.04;102575.44;5028080;28;20571;-90
2023/01/27 08:39:45;;;;;;;7.68;4.45;;;;;;;5.40;74.11;102594.75;5022631;28;20041;-89
2023/01/27 08:42:10;;;;;;;6.80;4.57;;;;;;;5.43;74.32;102593.06;5008283;28;20022;-90
2023/01/27 08:44:35;;;;;;;7.93;4.88;;;;;;;5.47;74.22;102605.34;5026190;28;20071;-88
2023/01/27 08:47:01;;;;;;;6.85;5.03;;;;;;;5.43;73.79;102597.44;5022491;28;20034;-88
2023/01/27 08:49:26;;;;;;;7.13;4.68;;;;;;;5.42;74.55;102596.53;5011135;28;20025;-89
2023/01/27 08:51:51;;;;;;;6.50;4.75;;;;;;;5.47;74.25;102601.84;5011399;28;20029;-88
2023/01/27 08:54:17;;;;;;;6.25;4.05;;;;;;;5.45;73.87;102604.44;5028722;28;20121;-88
2023/01/27 08:56:42;;;;;;;6.15;4.65;;;;;;;5.44;74.06;102604.41;5008541;28;20041;-88
2023/01/27 08:59:07;;;;;;;6.05;4.43;;;;;;;5.47;73.77;102613.19;5027056;28;20504;-89
2023/01/27 09:01:32;;;;;;;6.38;3.97;;;;;;;5.47;73.80;102614.94;5026090;28;20025;-88
2023/01/27 09:03:58;;;;;;;6.38;3.88;;;;;;;5.56;73.12;102630.78;5011666;28;20038;-89
2023/01/27 09:06:24;;;;;;;5.78;3.88;;;;;;;5.49;73.11;102621.06;5005421;28;20072;-89
2023/01/27 09:09:07;;;;;;;5.72;3.88;;;;;;;5.51;73.42;102620.25;5005144;28;20026;-89
2023/01/27 09:11:33;;;;;;;7.05;3.78;;;;;;;5.58;72.64;102629.91;5005231;28;20049;-89
2023/01/27 09:13:58;;;;;;;5.45;3.75;;;;;;;5.66;73.15;102631.75;5008988;28;20396;-89
2023/01/27 09:16:23;;;;;;;6.90;3.60;;;;;;;5.65;72.39;102616.88;5007922;28;20038;-89
2023/01/27 09:18:49;;;;;;;6.85;4.30;;;;;;;5.67;72.72;102618.63;5028990;28;20475;-90
2023/01/27 09:21:14;;;;;;;7.22;4.72;;;;;;;5.71;72.44;102619.53;5029205;28;20112;-90
2023/01/27 09:23:39;;;;;;;8.05;3.33;;;;;;;5.77;71.39;102624.81;5027452;28;20052;-88
2023/01/27 09:26:05;;;;;;;6.82;3.38;;;;;;;5.85;71.61;102638.91;5009327;28;20029;-90
2023/01/27 09:28:30;;;;;;;5.40;3.95;;;;;;;5.95;71.70;102640.75;5010087;28;20029;-90
2023/01/27 09:30:57;;;;;;;5.63;3.90;;;;;;;5.94;70.82;102628.50;5026150;28;20095;-89
2023/01/27 09:33:23;;;;;;;6.03;3.35;;;;;;;6.11;70.05;102647.91;5025526;28;20116;-89
2023/01/27 09:35:54;;;;;;;4.82;3.72;;;;;;;6.12;70.68;102649.66;5028676;28;20116;-90
2023/01/27 09:38:22;;;;;;;6.43;4.07;;;;;;;6.13;70.77;102659.28;5021304;28;20029;-89
2023/01/27 09:41:19;;;;;;;5.00;3.42;;;;;;;6.18;70.97;102650.56;5006864;28;20033;-89
2023/01/27 09:43:53;;;;;;;4.93;3.90;;;;;;;6.15;70.60;102659.28;5028498;28;20069;-88
2023/01/27 09:46:49;;;;;;;4.50;3.47;;;;;;;6.09;71.03;102644.38;5025250;28;20791;-89
2023/01/27 09:49:49;;;;;;;5.30;4.03;;;;;;;5.99;71.34;102652.16;5028378;28;20096;-89
2023/01/27 09:52:24;;;;;;;6.15;3.35;;;;;;;6.02;70.91;102655.72;5017307;28;20496;-90
2023/01/27 09:55:00;;;;;;;5.00;3.38;;;;;;;5.95;71.01;102647.75;5026351;28;20088;-89
2023/01/27 09:57:39;;;;;;;4.13;3.13;;;;;;;6.01;70.57;102664.44;5024576;28;20029;-90
2023/01/27 10:00:28;;;;;;;6.75;3.63;;;;;;;6.00;71.22;102652.16;5009094;28;20583;-89
2023/01/27 10:03:18;;;;;;;6.05;3.63;;;;;;;6.10;70.60;102667.13;5026948;28;20084;-88
2023/01/27 10:06:11;;;;;;;5.43;3.63;;;;;;;6.14;71.01;102670.66;5021684;28;20481;-90
2023/01/27 10:08:52;;;;;;;5.55;3.47;;;;;;;6.09;70.43;102672.38;5022695;28;20035;-89
2023/01/27 10:11:30;;;;;;;6.30;3.67;;;;;;;5.96;70.89;102658.25;5008676;28;20057;-89
2023/01/27 10:14:20;;;;;;;5.88;3.75;;;;;;;6.18;70.68;102668.94;5004939;28;20059;-89
2023/01/27 10:17:07;;;;;;;3.83;3.22;;;;;;;6.46;70.22;102664.75;5024238;28;20034;-89
2023/01/27 10:20:00;;;;;;;5.45;3.65;;;;;;;6.70;69.98;102664.00;5022617;28;20037;-90
2023/01/27 10:22:45;;;;;;;5.30;3.83;;;;;;;6.74;69.23;102660.53;5012898;28;20026;-89
2023/01/27 10:25:23;;;;;;;4.22;3.45;;;;;;;6.85;68.46;102648.31;5011245;28;20029;-88
2023/01/27 10:27:56;;;;;;;5.07;3.78;;;;;;;6.93;67.63;102662.38;5009899;28;20535;-89
2023/01/27 10:30:36;;;;;;;5.38;3.33;;;;;;;6.80;68.97;102666.69;5011870;28;20420;-89
2023/01/27 10:33:19;;;;;;;5.70;3.67;;;;;;;6.66;68.59;102647.34;5013323;28;20774;-90
2023/01/27 10:35:59;;;;;;;4.53;3.55;;;;;;;6.79;69.33;102666.69;5006916;28;20021;-89
2023/01/27 10:38:52;;;;;;;5.45;3.88;;;;;;;6.77;68.77;102663.19;5008932;28;20390;-90
2023/01/27 10:41:45;;;;;;;5.28;3.75;;;;;;;6.71;69.32;102656.13;5019939;28;20116;-89
2023/01/27 10:44:23;;;;;;;4.47;3.17;;;;;;;6.67;68.04;102659.63;5006688;28;20128;-88
2023/01/27 10:47:33;;;;;;;5.78;3.90;;;;;;;6.61;69.57;102663.09;5005893;28;20052;-89
2023/01/27 10:50:11;;;;;;;5.50;3.83;;;;;;;6.45;69.98;102648.13;4990103;28;20049;-90
2023/01/27 10:52:57;;;;;;;5.32;3.75;;;;;;;6.46;69.89;102649.88;5027905;28;20048;-90
2023/01/27 10:55:35;;;;;;;5.38;3.50;;;;;;;6.48;69.64;102649.88;5011855;28;20040;-89
2023/01/27 10:58:39;;;;;;;6.72;3.83;;;;;;;6.41;70.26;102646.34;5030831;28;20040;-89
2023/01/27 11:01:06;;;;;;;5.18;3.50;;;;;;;6.38;69.55;102656.81;5029369;28;20041;-89
2023/01/27 11:03:46;;;;;;;5.80;3.78;;;;;;;6.36;70.50;102658.56;5001653;28;20388;-89
2023/01/27 11:06:23;;;;;;;4.00;3.33;;;;;;;6.22;70.38;102640.09;5014518;28;20463;-89
2023/01/27 11:08:52;;;;;;;4.95;3.53;;;;;;;6.22;70.83;102647.09;5006793;28;20030;-89
2023/01/27 11:14:16;;;;;;;6.20;3.30;;;;;;;6.29;70.46;102662.00;5024895;28;20515;-89
2023/01/27 11:16:46;;;;;;;3.60;3.25;;;;;;;6.18;70.33;102638.31;5011934;28;20026;-90
2023/01/27 11:19:44;;;;;;;4.93;3.38;;;;;;;6.23;70.38;102652.34;5016356;28;20065;-89
2023/01/27 11:22:21;;;;;;;5.60;3.42;;;;;;;6.04;70.59;102640.84;5002289;28;20041;-90
2023/01/27 11:24:56;;;;;;;6.28;3.70;;;;;;;5.99;70.42;102639.91;5025069;28;20121;-90
2023/01/27 11:27:34;;;;;;;5.80;3.75;;;;;;;5.99;70.88;102629.41;5009248;28;20150;-89
2023/01/27 11:30:12;;;;;;;5.15;3.38;;;;;;;6.25;70.96;102655.88;5023076;28;20026;-89
2023/01/27 11:32:46;;;;;;;5.60;3.42;;;;;;;6.45;70.53;102642.00;5024138;28;20033;-89
2023/01/27 11:35:14;;;;;;;6.32;3.85;;;;;;;6.84;69.67;102638.66;5011573;28;20026;-89
2023/01/27 11:37:41;;;;;;;5.22;3.75;;;;;;;7.22;68.61;102632.66;5023139;28;20041;-89
2023/01/27 11:40:37;;;;;;;6.18;3.90;;;;;;;7.24;67.50;102638.81;5025480;28;20034;-90
2023/01/27 11:43:07;;;;;;;5.40;4.00;;;;;;;7.13;67.61;102636.13;5006418;28;20025;-90
2023/01/27 11:45:34;;;;;;;4.55;3.17;;;;;;;7.05;67.93;102619.47;4994808;28;20479;-89
2023/01/27 11:48:10;;;;;;;4.93;3.72;;;;;;;7.08;68.03;102630.84;4991209;28;20025;-89
2023/01/27 11:50:36;;;;;;;4.53;3.53;;;;;;;7.04;67.56;102629.13;4997293;28;20033;-89
2023/01/27 11:53:10;;;;;;;7.22;3.75;;;;;;;7.07;67.61;102629.09;4988323;28;20473;-90
2023/01/27 11:55:40;;;;;;;6.68;4.45;;;;;;;6.87;67.80;102636.06;5000213;28;20466;-90
2023/01/27 11:58:22;;;;;;;5.68;3.85;;;;;;;6.70;68.62;102619.34;4981474;28;20021;-90
2023/01/27 12:00:51;;;;;;;;;;;;;;;6.84;69.09;102641.28;5011936;28;20549;-90
2023/01/27 12:03:23;;;;;;;5.93;3.58;;;;;;;6.71;68.08;102631.59;5009352;28;19989;-90
2023/01/27 12:06:01;;;;;;;6.43;3.72;;;;;;;6.67;69.58;102622.84;5006085;28;20113;-90
2023/01/27 12:08:44;;;;;;;6.40;4.03;;;;;;;6.74;68.85;102621.09;5009052;28;20057;-91
2023/01/27 12:11:22;;;;;;;5.63;3.75;;;;;;;6.69;68.71;102615.81;5007369;28;20485;-89